Time;durP1;ratioP1;P1;durP2;ratioP2;P2;SDS_P1;SDS_P2;PMS_P1;PMS_P2;Temp;Humidity;BMP_temperature;BMP_pressure;BME280_temperature;BME280_humidity;BME280_pressure;Samples;Min_cycle;Max_cycle;Signal;HPM_P1;HPM_P2
2022/03/26 00:01:45;;;;;;;39.50;26.48;;;5.00;92.50;;;;;;5004099;28;20049;-69
2022/03/26 00:04:11;;;;;;;52.67;36.88;;;5.00;93.20;;;;;;4998779;28;20121;-69
2022/03/26 00:06:38;;;;;;;62.78;42.08;;;5.00;93.40;;;;;;5001888;28;20057;-69
2022/03/26 00:09:04;;;;;;;43.63;29.08;;;5.00;93.60;;;;;;5035722;28;20054;-69
2022/03/26 00:11:30;;;;;;;40.38;26.55;;;5.00;94.40;;;;;;5033348;28;20041;-69
2022/03/26 00:13:56;;;;;;;41.75;28.05;;;5.00;95.00;;;;;;5002899;28;20034;-69
2022/03/26 00:16:22;;;;;;;41.28;26.50;;;4.90;95.10;;;;;;5000271;28;20075;-69
2022/03/26 00:18:47;;;;;;;40.13;25.55;;;4.90;95.00;;;;;;5033835;28;20053;-69
2022/03/26 00:21:13;;;;;;;41.35;26.05;;;4.90;94.70;;;;;;5000407;28;20644;-69
2022/03/26 00:23:39;;;;;;;44.97;27.55;;;4.80;94.90;;;;;;5005054;28;20034;-69
2022/03/26 00:26:04;;;;;;;40.75;25.98;;;4.80;95.10;;;;;;4997991;28;20045;-69
2022/03/26 00:28:30;;;;;;;37.55;25.73;;;4.80;95.60;;;;;;5005509;28;20056;-69
2022/03/26 00:30:56;;;;;;;41.72;25.95;;;4.80;95.70;;;;;;5017600;28;20046;-69
2022/03/26 00:33:22;;;;;;;40.58;26.73;;;4.70;95.80;;;;;;4995859;28;20046;-69
2022/03/26 00:35:48;;;;;;;39.08;26.13;;;4.70;96.90;;;;;;5003298;28;20041;-69
2022/03/26 00:38:13;;;;;;;46.03;28.02;;;4.70;97.30;;;;;;5028935;28;20061;-69
2022/03/26 00:40:40;;;;;;;41.78;26.67;;;4.70;97.60;;;;;;4994319;28;20043;-69
2022/03/26 00:43:07;;;;;;;46.70;27.35;;;4.70;98.00;;;;;;5031550;28;20053;-69
2022/03/26 00:45:34;;;;;;;39.67;26.10;;;4.60;98.00;;;;;;5016484;28;20487;-69
2022/03/26 00:48:01;;;;;;;39.00;26.42;;;4.60;98.20;;;;;;5029762;28;20050;-69
2022/03/26 00:50:27;;;;;;;34.40;24.45;;;4.60;98.40;;;;;;5000216;28;20049;-69
2022/03/26 00:52:53;;;;;;;40.20;24.38;;;4.60;98.10;;;;;;5031782;28;20048;-69
2022/03/26 00:55:20;;;;;;;43.33;25.17;;;4.60;98.40;;;;;;4997252;28;20054;-69
2022/03/26 00:57:45;;;;;;;38.97;23.75;;;4.50;98.20;;;;;;5000900;28;20539;-69
2022/03/26 01:00:12;;;;;;;39.42;24.42;;;4.50;98.60;;;;;;5032183;28;20038;-69
2022/03/26 01:02:38;;;;;;;41.00;24.67;;;4.50;98.90;;;;;;4996519;28;20052;-69
2022/03/26 01:05:04;;;;;;;37.08;25.05;;;4.50;98.70;;;;;;5018268;28;20041;-69
2022/03/26 01:07:31;;;;;;;35.03;22.77;;;4.50;99.30;;;;;;4999321;28;20383;-69
2022/03/26 01:09:58;;;;;;;37.60;22.20;;;4.50;99.30;;;;;;5002713;28;20491;-69
2022/03/26 01:12:25;;;;;;;37.90;23.50;;;4.40;99.50;;;;;;4999400;28;20396;-69
2022/03/26 01:14:52;;;;;;;34.40;23.30;;;4.40;99.70;;;;;;4998932;28;20442;-69
2022/03/26 01:17:18;;;;;;;38.50;23.17;;;4.40;99.90;;;;;;4999402;28;20042;-69
2022/03/26 01:19:45;;;;;;;36.60;23.35;;;4.40;99.90;;;;;;4999820;28;20089;-68
2022/03/26 01:22:11;;;;;;;35.25;22.67;;;4.40;99.90;;;;;;5033402;28;20168;-68
2022/03/26 01:24:36;;;;;;;37.10;23.98;;;4.30;99.90;;;;;;5007828;28;20532;-69
2022/03/26 01:27:03;;;;;;;38.22;24.05;;;4.30;99.90;;;;;;4992826;28;20038;-68
2022/03/26 01:29:29;;;;;;;41.85;25.35;;;4.30;99.90;;;;;;5000817;28;20161;-68
2022/03/26 01:31:55;;;;;;;38.85;24.88;;;4.30;99.90;;;;;;4997227;28;20185;-68
2022/03/26 01:34:24;;;;;;;37.70;24.58;;;4.20;99.90;;;;;;4993799;28;20380;-68
2022/03/26 01:36:49;;;;;;;37.00;24.60;;;4.20;99.90;;;;;;4998478;28;20035;-68
2022/03/26 01:39:15;;;;;;;38.95;23.33;;;4.20;99.90;;;;;;4978248;28;20045;-68
2022/03/26 01:41:41;;;;;;;43.08;26.58;;;4.20;99.90;;;;;;5011956;28;20057;-68
2022/03/26 01:44:12;;;;;;;39.97;25.63;;;4.10;99.90;;;;;;5003505;28;20062;-68
2022/03/26 01:46:53;;;;;;;43.42;25.70;;;4.10;99.90;;;;;;5037434;28;20033;-69
2022/03/26 01:49:19;;;;;;;36.35;24.65;;;4.10;99.90;;;;;;4996848;28;20057;-69
2022/03/26 01:51:46;;;;;;;37.08;24.20;;;4.00;99.90;;;;;;5005478;28;20133;-69
2022/03/26 01:54:13;;;;;;;40.58;24.17;;;4.10;99.90;;;;;;4998930;28;20132;-69
2022/03/26 01:56:39;;;;;;;35.00;22.55;;;4.00;99.90;;;;;;5033062;28;20034;-69
2022/03/26 01:59:06;;;;;;;40.15;25.23;;;4.00;99.90;;;;;;5001441;28;20034;-69
2022/03/26 02:01:33;;;;;;;36.65;24.67;;;4.00;99.90;;;;;;4999888;28;20038;-69
2022/03/26 02:04:00;;;;;;;40.35;25.58;;;4.00;99.90;;;;;;4998134;28;20042;-69
2022/03/26 02:06:33;;;;;;;44.08;24.85;;;3.90;99.90;;;;;;4998586;28;20040;-69
2022/03/26 02:09:10;;;;;;;40.80;25.48;;;3.90;99.90;;;;;;4999749;28;20522;-69
2022/03/26 02:11:38;;;;;;;40.35;25.35;;;3.90;99.90;;;;;;4998749;28;20121;-69
2022/03/26 02:14:07;;;;;;;42.42;26.80;;;3.90;99.90;;;;;;4996705;28;20498;-69
2022/03/26 02:16:34;;;;;;;37.97;25.20;;;3.90;99.90;;;;;;5001702;28;20478;-69
2022/03/26 02:19:00;;;;;;;40.97;26.30;;;3.80;99.90;;;;;;4994862;28;20142;-69
2022/03/26 02:21:26;;;;;;;44.70;26.98;;;3.80;99.90;;;;;;5001884;28;20129;-69
2022/03/26 02:23:52;;;;;;;45.33;27.08;;;3.80;99.90;;;;;;4999139;28;20126;-69
2022/03/26 02:26:26;;;;;;;41.80;26.35;;;3.80;99.90;;;;;;5002817;28;20038;-69
2022/03/26 02:28:53;;;;;;;41.92;27.13;;;3.70;99.90;;;;;;5025745;28;20049;-69
2022/03/26 02:31:20;;;;;;;44.67;28.38;;;3.70;99.90;;;;;;5000366;28;20065;-69
2022/03/26 02:33:46;;;;;;;43.75;26.45;;;3.70;99.90;;;;;;5029538;28;20437;-69
2022/03/26 02:36:12;;;;;;;43.67;27.88;;;3.70;99.90;;;;;;5002353;28;20045;-69
2022/03/26 02:38:38;;;;;;;43.17;28.13;;;3.70;99.90;;;;;;4998550;28;20035;-69
2022/03/26 02:41:05;;;;;;;46.90;28.13;;;3.70;99.90;;;;;;4998987;28;20133;-69
2022/03/26 02:43:31;;;;;;;46.65;29.23;;;3.60;99.90;;;;;;5029912;28;20058;-69
2022/03/26 02:45:56;;;;;;;48.75;29.15;;;3.70;99.90;;;;;;4997674;28;20097;-69
2022/03/26 02:48:22;;;;;;;53.67;30.30;;;3.60;99.90;;;;;;5001923;28;20258;-69
2022/03/26 02:50:48;;;;;;;51.67;30.92;;;3.60;99.90;;;;;;5030183;28;20137;-69
2022/03/26 02:53:14;;;;;;;54.08;32.42;;;3.60;99.90;;;;;;5000869;28;20494;-69
2022/03/26 02:55:40;;;;;;;56.45;34.00;;;3.50;99.90;;;;;;4998256;28;20145;-69
2022/03/26 02:58:08;;;;;;;59.05;33.97;;;3.50;99.90;;;;;;5039087;28;20038;-69
2022/03/26 03:00:35;;;;;;;66.45;37.75;;;3.50;99.90;;;;;;4982375;28;20569;-69
2022/03/26 03:03:00;;;;;;;61.25;36.50;;;3.50;99.90;;;;;;5038301;28;20136;-69
2022/03/26 03:05:26;;;;;;;63.97;37.10;;;3.50;99.90;;;;;;5035851;28;20122;-69
2022/03/26 03:07:53;;;;;;;60.13;37.35;;;3.50;99.90;;;;;;5035006;28;20100;-69
2022/03/26 03:10:19;;;;;;;60.22;37.13;;;3.40;99.90;;;;;;5006440;28;20124;-69
2022/03/26 03:12:48;;;;;;;63.83;37.85;;;3.40;99.90;;;;;;5005955;28;20527;-69
2022/03/26 03:15:18;;;;;;;63.85;38.30;;;3.40;99.90;;;;;;5000959;28;20046;-69
2022/03/26 03:17:45;;;;;;;68.78;39.35;;;3.40;99.90;;;;;;5005035;28;20415;-69
2022/03/26 03:20:12;;;;;;;62.60;38.17;;;3.40;99.90;;;;;;5000954;28;20042;-69
2022/03/26 03:22:38;;;;;;;67.13;39.22;;;3.40;99.90;;;;;;5030748;28;20046;-69
2022/03/26 03:25:05;;;;;;;66.95;40.50;;;3.40;99.90;;;;;;4997811;28;20070;-69
2022/03/26 03:27:32;;;;;;;67.03;39.17;;;3.30;99.90;;;;;;5004743;28;20065;-69
2022/03/26 03:29:57;;;;;;;68.30;39.83;;;3.30;99.90;;;;;;5029880;28;20045;-68
2022/03/26 03:32:23;;;;;;;67.70;39.38;;;3.30;99.90;;;;;;4997113;28;20034;-68
2022/03/26 03:34:50;;;;;;;69.68;41.28;;;3.30;99.90;;;;;;5002248;28;20073;-68
2022/03/26 03:37:16;;;;;;;69.03;40.15;;;3.30;99.90;;;;;;4998332;28;20047;-68
2022/03/26 03:39:42;;;;;;;76.22;42.40;;;3.30;99.90;;;;;;5000729;28;20050;-67
2022/03/26 03:42:08;;;;;;;69.97;42.35;;;3.30;99.90;;;;;;5034181;28;20034;-68
2022/03/26 03:44:34;;;;;;;72.70;40.08;;;3.30;99.90;;;;;;5002740;28;20053;-68
2022/03/26 03:47:00;;;;;;;73.53;42.15;;;3.30;99.90;;;;;;5001281;28;20466;-68
2022/03/26 03:49:26;;;;;;;71.13;41.42;;;3.30;99.90;;;;;;5005510;28;20040;-68
2022/03/26 03:51:53;;;;;;;71.57;42.78;;;3.30;99.90;;;;;;5003416;28;20541;-68
2022/03/26 03:54:19;;;;;;;79.00;43.85;;;3.20;99.90;;;;;;5036016;28;20038;-68
2022/03/26 03:56:44;;;;;;;73.03;43.67;;;3.20;99.90;;;;;;5035256;28;20068;-68
2022/03/26 03:59:11;;;;;;;81.43;45.45;;;3.20;99.90;;;;;;5033876;28;20069;-68
2022/03/26 04:01:37;;;;;;;83.63;46.20;;;3.20;99.90;;;;;;5019761;28;20057;-68
2022/03/26 04:04:03;;;;;;;83.50;46.35;;;3.20;99.90;;;;;;5000736;28;20806;-68
2022/03/26 04:06:28;;;;;;;83.30;47.30;;;3.20;99.90;;;;;;5035867;28;20102;-68
2022/03/26 04:08:54;;;;;;;82.28;44.92;;;3.20;99.90;;;;;;4994937;28;20046;-68
2022/03/26 04:11:20;;;;;;;78.97;44.88;;;3.20;99.90;;;;;;5000820;28;20709;-68
2022/03/26 04:13:46;;;;;;;76.10;42.55;;;3.20;99.90;;;;;;4978467;28;20414;-68
2022/03/26 04:16:12;;;;;;;73.45;42.15;;;3.10;99.90;;;;;;4997725;28;20053;-69
2022/03/26 04:18:38;;;;;;;69.65;39.78;;;3.20;99.90;;;;;;4995905;28;20038;-69
2022/03/26 04:21:04;;;;;;;71.03;41.80;;;3.10;99.90;;;;;;5017462;28;20065;-69
2022/03/26 04:23:30;;;;;;;73.90;42.42;;;3.10;99.90;;;;;;5030976;28;20049;-69
2022/03/26 04:25:56;;;;;;;71.82;42.70;;;3.10;99.90;;;;;;4999655;28;20046;-69
2022/03/26 04:28:22;;;;;;;78.78;43.30;;;3.10;99.90;;;;;;5002142;28;20049;-68
2022/03/26 04:30:48;;;;;;;75.00;41.92;;;3.10;99.90;;;;;;5005174;28;20129;-68
2022/03/26 04:33:13;;;;;;;76.75;42.17;;;3.00;99.90;;;;;;5031910;28;20191;-68
2022/03/26 04:35:39;;;;;;;78.03;44.30;;;3.00;99.90;;;;;;5003168;28;20044;-68
2022/03/26 04:38:05;;;;;;;81.63;45.63;;;3.00;99.90;;;;;;5001369;28;20050;-68
2022/03/26 04:40:32;;;;;;;81.75;46.58;;;3.00;99.90;;;;;;5032838;28;20117;-68
2022/03/26 04:42:57;;;;;;;84.57;47.38;;;3.00;99.90;;;;;;5001658;28;20058;-68
2022/03/26 04:45:23;;;;;;;86.40;47.53;;;3.10;99.90;;;;;;5001629;28;20042;-68
2022/03/26 04:47:49;;;;;;;84.68;46.25;;;3.00;99.90;;;;;;5001285;28;20051;-68
2022/03/26 04:50:15;;;;;;;91.93;49.35;;;3.00;99.90;;;;;;5003084;28;20046;-68
2022/03/26 04:52:41;;;;;;;88.53;47.92;;;3.00;99.90;;;;;;5031528;28;20046;-68
2022/03/26 04:55:08;;;;;;;83.22;45.90;;;3.00;99.90;;;;;;4997709;28;20124;-68
2022/03/26 04:57:42;;;;;;;82.30;45.63;;;2.90;99.90;;;;;;5001617;28;20045;-68
2022/03/26 05:00:10;;;;;;;79.93;46.07;;;2.90;99.90;;;;;;5030523;28;20044;-69
2022/03/26 05:02:39;;;;;;;80.28;44.50;;;2.90;99.90;;;;;;4998885;28;20034;-68
2022/03/26 05:05:06;;;;;;;90.95;50.10;;;2.90;99.90;;;;;;4996431;28;20046;-68
2022/03/26 05:07:47;;;;;;;90.30;49.00;;;2.90;99.90;;;;;;5032628;28;20145;-68
2022/03/26 05:10:21;;;;;;;89.60;48.53;;;2.90;99.90;;;;;;4997910;28;20041;-68
2022/03/26 05:12:49;;;;;;;87.07;48.42;;;2.80;99.90;;;;;;5029905;28;20046;-68
2022/03/26 05:15:16;;;;;;;85.75;47.25;;;2.80;99.90;;;;;;4998338;28;20552;-69
2022/03/26 05:17:42;;;;;;;85.22;46.85;;;2.80;99.90;;;;;;5034636;28;20121;-69
2022/03/26 05:20:09;;;;;;;86.40;49.00;;;2.80;99.90;;;;;;4996957;28;20462;-69
2022/03/26 05:22:35;;;;;;;84.07;47.20;;;2.80;99.90;;;;;;5033424;28;20038;-68
2022/03/26 05:25:02;;;;;;;76.60;44.28;;;2.80;99.90;;;;;;4986165;28;20049;-68
2022/03/26 05:27:27;;;;;;;82.65;44.83;;;2.80;99.90;;;;;;5002980;28;20042;-67
2022/03/26 05:29:54;;;;;;;81.28;44.63;;;2.80;99.90;;;;;;5032244;28;20525;-69
2022/03/26 05:32:19;;;;;;;86.18;45.90;;;2.80;99.90;;;;;;5033751;28;20046;-69
2022/03/26 05:34:45;;;;;;;77.68;44.17;;;2.80;99.90;;;;;;4998072;28;20508;-69
2022/03/26 05:37:12;;;;;;;72.65;42.75;;;2.80;99.90;;;;;;5001796;28;20505;-68
2022/03/26 05:39:39;;;;;;;79.75;44.40;;;2.80;99.90;;;;;;5000411;28;20490;-68
2022/03/26 05:42:05;;;;;;;73.05;41.33;;;2.70;99.90;;;;;;5000455;28;20132;-68
2022/03/26 05:44:31;;;;;;;78.60;42.15;;;2.70;99.90;;;;;;5000131;28;20054;-68
2022/03/26 05:46:57;;;;;;;74.32;41.90;;;2.80;99.90;;;;;;5027693;28;20045;-68
2022/03/26 05:49:22;;;;;;;78.60;43.35;;;2.70;99.90;;;;;;5007897;28;20038;-68
2022/03/26 05:51:48;;;;;;;76.40;43.58;;;2.80;99.90;;;;;;4995082;28;20046;-68
2022/03/26 05:54:14;;;;;;;82.68;46.03;;;2.80;99.90;;;;;;5005413;28;20108;-68
2022/03/26 05:56:40;;;;;;;80.22;43.03;;;2.80;99.90;;;;;;5026473;28;20046;-68
2022/03/26 05:59:10;;;;;;;83.97;46.50;;;2.80;99.90;;;;;;5003799;28;20041;-68
2022/03/26 06:01:36;;;;;;;83.00;46.80;;;2.90;99.90;;;;;;4991762;28;20387;-68
2022/03/26 06:04:02;;;;;;;90.25;49.60;;;2.90;99.90;;;;;;4983300;28;20085;-68
2022/03/26 06:06:29;;;;;;;96.65;52.60;;;3.00;99.90;;;;;;4994342;28;20039;-68
2022/03/26 06:08:54;;;;;;;92.88;50.28;;;3.00;99.90;;;;;;4982649;28;20046;-68
2022/03/26 06:11:20;;;;;;;92.85;51.00;;;3.10;99.90;;;;;;4993708;28;20691;-68
2022/03/26 06:13:46;;;;;;;89.43;48.42;;;3.20;99.90;;;;;;5001323;28;20948;-68
2022/03/26 06:16:13;;;;;;;96.00;52.53;;;3.30;99.90;;;;;;5013816;28;20050;-68
2022/03/26 06:18:39;;;;;;;89.50;48.55;;;3.40;99.90;;;;;;4989495;28;20058;-68
2022/03/26 06:21:05;;;;;;;92.15;50.50;;;3.50;99.90;;;;;;5033378;28;20038;-68
2022/03/26 06:23:32;;;;;;;95.68;50.67;;;3.60;99.90;;;;;;5034596;28;20046;-68
2022/03/26 06:25:58;;;;;;;89.38;49.92;;;3.70;99.90;;;;;;5001811;28;20046;-67
2022/03/26 06:28:24;;;;;;;86.50;49.75;;;3.80;99.90;;;;;;5000184;28;20037;-67
2022/03/26 06:30:50;;;;;;;85.55;49.05;;;3.80;99.90;;;;;;5035081;28;20046;-67
2022/03/26 06:33:17;;;;;;;91.75;52.15;;;4.00;99.90;;;;;;5016195;28;20053;-67
2022/03/26 06:35:44;;;;;;;97.22;53.25;;;4.00;99.90;;;;;;5007746;28;20108;-68
2022/03/26 06:38:10;;;;;;;104.28;58.03;;;4.20;99.90;;;;;;5003332;28;20102;-68
2022/03/26 06:40:40;;;;;;;109.18;59.72;;;4.30;99.90;;;;;;5034145;28;20076;-68
2022/03/26 06:43:06;;;;;;;105.20;62.58;;;4.50;99.90;;;;;;5000937;28;20054;-68
2022/03/26 06:45:33;;;;;;;126.15;68.88;;;4.60;99.90;;;;;;5018163;28;20053;-68
2022/03/26 06:47:59;;;;;;;127.50;72.47;;;4.80;99.90;;;;;;4999095;28;20091;-68
2022/03/26 06:50:25;;;;;;;133.68;74.50;;;4.90;99.90;;;;;;5023216;28;20053;-68
2022/03/26 06:52:52;;;;;;;139.48;78.82;;;5.10;99.90;;;;;;5007332;28;20069;-68
2022/03/26 06:55:18;;;;;;;132.23;81.60;;;5.30;99.90;;;;;;5002240;28;20196;-68
2022/03/26 06:57:44;;;;;;;139.70;80.90;;;5.40;99.90;;;;;;4997793;28;20050;-68
2022/03/26 07:00:15;;;;;;;139.57;81.20;;;5.60;99.90;;;;;;5005914;28;20041;-68
2022/03/26 07:02:41;;;;;;;148.40;86.50;;;5.90;99.90;;;;;;5038804;28;20034;-68
2022/03/26 07:05:07;;;;;;;138.20;83.75;;;6.10;99.90;;;;;;4997667;28;20379;-68
2022/03/26 07:07:33;;;;;;;144.70;86.47;;;6.30;99.90;;;;;;4999924;28;20056;-68
2022/03/26 07:09:59;;;;;;;152.80;90.13;;;6.60;99.90;;;;;;5000467;28;20045;-68
2022/03/26 07:12:26;;;;;;;139.95;86.82;;;6.80;99.90;;;;;;5034662;28;20139;-68
2022/03/26 07:14:53;;;;;;;142.85;88.75;;;7.00;99.90;;;;;;5001419;28;20042;-68
2022/03/26 07:17:18;;;;;;;137.60;84.47;;;7.30;99.90;;;;;;5020216;28;20410;-68
2022/03/26 07:19:44;;;;;;;125.68;81.60;;;7.50;99.90;;;;;;5000487;28;20043;-68
2022/03/26 07:22:10;;;;;;;118.25;76.88;;;7.80;99.90;;;;;;5008148;28;20489;-68
2022/03/26 07:24:35;;;;;;;111.90;72.93;;;8.30;99.90;;;;;;5000601;28;20045;-68
2022/03/26 07:27:01;;;;;;;109.80;73.75;;;8.80;99.90;;;;;;5038857;28;20406;-68
2022/03/26 07:29:27;;;;;;;109.15;74.30;;;9.60;99.90;;;;;;5034461;28;20443;-68
2022/03/26 07:31:54;;;;;;;102.65;67.03;;;10.50;99.90;;;;;;5035206;28;20057;-69
2022/03/26 07:34:20;;;;;;;107.55;73.57;;;11.40;99.90;;;;;;5000129;28;20133;-69
2022/03/26 07:36:46;;;;;;;107.15;72.78;;;12.10;99.50;;;;;;4999930;28;20482;-69
2022/03/26 07:39:13;;;;;;;101.43;72.60;;;12.60;97.60;;;;;;4998767;28;20108;-69
2022/03/26 07:41:38;;;;;;;102.18;71.47;;;13.10;96.10;;;;;;5030322;28;20401;-69
2022/03/26 07:44:04;;;;;;;89.97;70.00;;;13.60;94.60;;;;;;4994964;28;20054;-69
2022/03/26 07:46:30;;;;;;;92.28;69.38;;;14.20;93.20;;;;;;5035093;28;20057;-69
2022/03/26 07:48:56;;;;;;;91.30;67.68;;;14.70;91.80;;;;;;5000489;28;20042;-69
2022/03/26 07:51:21;;;;;;;90.28;66.22;;;15.30;90.50;;;;;;5006498;28;20041;-69
2022/03/26 07:53:47;;;;;;;94.05;63.25;;;15.80;85.90;;;;;;4996967;28;20049;-69
2022/03/26 07:56:13;;;;;;;86.13;65.38;;;15.90;81.00;;;;;;4995451;28;20045;-69
2022/03/26 07:58:39;;;;;;;78.20;59.88;;;16.10;78.60;;;;;;4999237;28;20046;-69
2022/03/26 08:01:06;;;;;;;82.47;60.78;;;16.40;75.80;;;;;;4999990;28;20501;-69
2022/03/26 08:03:33;;;;;;;82.22;59.05;;;16.60;72.70;;;;;;5000319;28;20074;-70
2022/03/26 08:05:58;;;;;;;77.53;57.60;;;17.00;72.50;;;;;;5033713;28;20042;-70
2022/03/26 08:08:25;;;;;;;78.70;56.75;;;17.30;69.90;;;;;;5033740;28;20057;-70
2022/03/26 08:10:51;;;;;;;71.60;52.75;;;17.40;67.80;;;;;;5002259;28;20042;-70
2022/03/26 08:13:17;;;;;;;62.85;49.90;;;17.70;66.10;;;;;;5035707;28;20509;-70
2022/03/26 08:15:43;;;;;;;60.67;48.08;;;18.00;63.80;;;;;;5031047;28;20477;-70
2022/03/26 08:18:09;;;;;;;65.30;50.08;;;18.10;62.40;;;;;;5005194;28;20499;-70
2022/03/26 08:20:35;;;;;;;66.22;48.28;;;18.30;63.00;;;;;;5003464;28;20497;-70
2022/03/26 08:23:00;;;;;;;61.35;48.40;;;18.80;62.10;;;;;;5007280;28;20387;-70
2022/03/26 08:28:11;;;;;;;61.08;48.28;;;19.10;57.20;;;;;;5004417;28;20060;-70
2022/03/26 08:30:38;;;;;;;61.63;46.47;;;19.30;57.00;;;;;;5030796;28;20053;-70
2022/03/26 08:33:04;;;;;;;62.60;45.58;;;19.60;56.90;;;;;;5000045;28;20084;-70
2022/03/26 08:35:38;;;;;;;54.40;44.50;;;19.30;54.90;;;;;;5000109;28;20091;-70
2022/03/26 08:38:05;;;;;;;56.92;43.92;;;19.30;55.50;;;;;;4998282;28;20139;-70
2022/03/26 08:40:31;;;;;;;58.58;44.95;;;19.60;56.60;;;;;;5033942;28;20038;-70
2022/03/26 08:42:58;;;;;;;57.38;42.00;;;20.00;55.60;;;;;;5042037;28;20045;-70
2022/03/26 08:45:29;;;;;;;59.95;42.80;;;19.90;53.00;;;;;;4998946;28;20049;-70
2022/03/26 08:47:56;;;;;;;52.80;41.80;;;19.90;53.20;;;;;;4992380;28;20137;-70
2022/03/26 08:50:22;;;;;;;53.45;42.95;;;19.90;53.20;;;;;;5002595;28;20490;-70
2022/03/26 08:52:49;;;;;;;54.42;42.03;;;20.20;53.60;;;;;;5039831;28;20046;-70
2022/03/26 08:55:16;;;;;;;49.42;38.75;;;20.70;52.50;;;;;;5020397;28;20474;-70
2022/03/26 08:57:43;;;;;;;45.05;37.00;;;20.70;50.80;;;;;;4987130;28;20100;-70
2022/03/26 09:00:10;;;;;;;51.83;38.92;;;20.70;49.40;;;;;;5004298;28;20050;-69
2022/03/26 09:02:37;;;;;;;49.03;39.35;;;20.60;48.70;;;;;;5002644;28;20046;-70
2022/03/26 09:05:06;;;;;;;51.45;37.60;;;20.70;49.60;;;;;;5001002;28;20047;-70
2022/03/26 09:07:33;;;;;;;47.30;38.58;;;21.00;48.80;;;;;;5002110;28;20039;-70
2022/03/26 09:09:59;;;;;;;49.20;39.17;;;21.10;48.60;;;;;;5003301;28;20043;-69
2022/03/26 09:12:24;;;;;;;388.73;349.23;;;21.20;47.60;;;;;;5000821;28;20056;-69
2022/03/26 09:14:50;;;;;;;51.42;38.60;;;21.20;47.70;;;;;;5016670;28;20046;-70
2022/03/26 09:17:16;;;;;;;49.90;37.30;;;21.10;47.20;;;;;;5031400;28;20040;-70
2022/03/26 09:19:42;;;;;;;58.25;46.38;;;21.00;47.20;;;;;;5033077;28;20589;-70
2022/03/26 09:22:07;;;;;;;47.28;35.47;;;20.90;47.50;;;;;;5033498;28;20171;-70
2022/03/26 09:24:33;;;;;;;42.03;32.55;;;21.40;47.30;;;;;;5034460;28;20073;-69
2022/03/26 09:26:59;;;;;;;40.90;30.85;;;21.80;46.50;;;;;;4998039;28;20455;-69
2022/03/26 09:29:24;;;;;;;46.30;32.78;;;21.70;45.00;;;;;;4995347;28;20042;-70
2022/03/26 09:31:50;;;;;;;44.35;33.05;;;21.50;45.60;;;;;;5028665;28;20088;-70
2022/03/26 09:34:16;;;;;;;43.45;35.08;;;21.30;46.20;;;;;;4993390;28;20069;-70
2022/03/26 09:36:41;;;;;;;45.92;35.50;;;21.30;46.80;;;;;;4998322;28;20038;-70
2022/03/26 09:39:07;;;;;;;43.72;33.72;;;21.20;46.40;;;;;;4991345;28;20046;-69
2022/03/26 09:41:34;;;;;;;39.47;30.88;;;21.20;48.40;;;;;;5032060;28;20043;-69
2022/03/26 09:44:00;;;;;;;49.83;41.92;;;21.70;48.40;;;;;;4994943;28;20265;-69
2022/03/26 09:46:26;;;;;;;35.35;27.40;;;22.20;47.50;;;;;;4995840;28;20514;-69
2022/03/26 09:48:52;;;;;;;34.70;29.02;;;22.40;46.80;;;;;;4995774;28;20056;-69
2022/03/26 09:51:24;;;;;;;32.42;27.88;;;22.50;47.00;;;;;;4999729;28;20038;-69
2022/03/26 09:53:52;;;;;;;36.50;28.15;;;22.60;46.30;;;;;;5000257;28;20192;-70
2022/03/26 09:56:19;;;;;;;37.83;30.83;;;22.70;46.90;;;;;;5032238;28;20482;-70
2022/03/26 09:58:45;;;;;;;35.92;29.92;;;22.80;46.50;;;;;;5001609;28;20438;-70
2022/03/26 10:01:11;;;;;;;38.90;30.73;;;22.80;46.80;;;;;;5001398;28;20046;-69
2022/03/26 10:03:39;;;;;;;36.70;30.42;;;22.40;47.60;;;;;;5001347;28;20034;-70
2022/03/26 10:06:09;;;;;;;32.53;28.55;;;22.20;47.90;;;;;;5002045;28;20038;-70
2022/03/26 10:08:37;;;;;;;37.30;27.17;;;22.00;48.40;;;;;;5000090;28;20494;-69
2022/03/26 10:11:05;;;;;;;31.70;27.88;;;22.20;49.10;;;;;;5000936;28;20037;-69
2022/03/26 10:13:36;;;;;;;28.70;25.52;;;22.40;48.60;;;;;;5005800;28;20478;-69
2022/03/26 10:16:10;;;;;;;28.08;24.58;;;22.60;47.00;;;;;;5003387;28;20204;-69
2022/03/26 10:18:44;;;;;;;30.38;24.58;;;22.70;47.10;;;;;;5003029;28;20034;-69
2022/03/26 10:21:14;;;;;;;29.27;22.67;;;23.00;47.00;;;;;;5004692;28;20034;-69
2022/03/26 10:23:45;;;;;;;25.13;20.15;;;22.60;47.20;;;;;;5000499;28;20141;-69
2022/03/26 10:26:17;;;;;;;32.22;18.73;;;22.70;47.90;;;;;;4996651;28;20035;-69
2022/03/26 10:28:48;;;;;;;20.65;17.92;;;22.80;48.50;;;;;;4992921;28;20246;-69
2022/03/26 10:34:15;;;;;;;25.98;20.35;;;22.30;49.20;;;;;;4990868;28;20057;-69
2022/03/26 10:36:43;;;;;;;18.90;16.80;;;22.00;49.50;;;;;;5002439;28;20041;-70
2022/03/26 10:39:30;;;;;;;21.38;19.13;;;22.00;49.40;;;;;;5028285;28;20054;-70
2022/03/26 10:41:57;;;;;;;23.98;18.23;;;21.60;50.70;;;;;;4993579;28;20061;-70
2022/03/26 10:44:26;;;;;;;21.45;17.10;;;21.70;50.80;;;;;;5001828;28;20375;-70
2022/03/26 10:46:54;;;;;;;18.17;15.63;;;21.70;50.70;;;;;;4994203;28;20046;-70
2022/03/26 10:49:27;;;;;;;17.27;15.07;;;21.80;51.30;;;;;;5004326;28;20045;-70
2022/03/26 10:51:54;;;;;;;18.00;14.45;;;21.90;49.80;;;;;;4998237;28;20478;-69
2022/03/26 10:54:27;;;;;;;15.70;14.05;;;21.40;50.00;;;;;;5006344;28;20030;-69
2022/03/26 10:56:53;;;;;;;15.15;12.85;;;21.40;50.80;;;;;;4998723;28;20050;-69
2022/03/26 10:59:22;;;;;;;21.42;16.00;;;21.40;50.80;;;;;;5005120;28;20043;-70
2022/03/26 11:01:47;;;;;;;23.27;16.60;;;21.20;50.90;;;;;;5028020;28;20038;-70
2022/03/26 11:04:13;;;;;;;19.95;16.92;;;21.00;51.20;;;;;;5000871;28;20054;-70
2022/03/26 11:06:39;;;;;;;16.92;14.25;;;20.90;52.30;;;;;;4998887;28;20073;-70
2022/03/26 11:09:06;;;;;;;17.35;15.07;;;20.70;51.90;;;;;;5003206;28;20068;-70
2022/03/26 11:11:33;;;;;;;16.13;14.25;;;20.70;52.10;;;;;;4994984;28;20046;-70
2022/03/26 11:14:30;;;;;;;16.80;12.80;;;21.00;52.30;;;;;;4998401;28;20050;-70
2022/03/26 11:17:14;;;;;;;14.05;12.57;;;21.40;51.80;;;;;;5002345;28;20053;-70
2022/03/26 11:19:56;;;;;;;10.85;9.73;;;21.60;49.90;;;;;;5004012;28;20049;-70
2022/03/26 11:22:32;;;;;;;15.85;11.02;;;21.30;50.40;;;;;;5029324;28;20046;-70
2022/03/26 11:25:03;;;;;;;14.68;11.98;;;21.10;50.30;;;;;;5001774;28;20185;-70
2022/03/26 11:27:54;;;;;;;12.48;11.20;;;21.10;51.20;;;;;;5027832;28;20046;-70
2022/03/26 11:30:27;;;;;;;13.27;11.93;;;21.30;50.40;;;;;;5007838;28;20070;-70
2022/03/26 11:32:55;;;;;;;13.18;11.80;;;21.00;50.90;;;;;;5039282;28;20042;-70
2022/03/26 11:35:21;;;;;;;14.60;11.77;;;21.10;51.60;;;;;;5004789;28;20458;-70
2022/03/26 11:38:00;;;;;;;13.77;12.38;;;21.30;50.50;;;;;;4999303;28;20077;-70
2022/03/26 11:40:43;;;;;;;15.23;12.88;;;21.50;50.30;;;;;;5004863;28;20581;-70
2022/03/26 11:43:30;;;;;;;13.57;12.18;;;21.70;50.50;;;;;;5006028;28;20093;-70
2022/03/26 11:51:37;;;;;;;11.90;10.52;;;21.90;49.50;;;;;;4998474;28;20056;-70
2022/03/26 11:54:12;;;;;;;11.20;10.10;;;22.20;50.30;;;;;;5003579;28;20141;-70
2022/03/26 11:56:38;;;;;;;13.57;10.18;;;22.10;48.80;;;;;;5005072;28;20042;-70
2022/03/26 11:59:17;;;;;;;11.10;9.95;;;22.20;48.90;;;;;;5016450;28;20060;-70
2022/03/26 12:01:44;;;;;;;11.13;8.82;;;22.20;48.70;;;;;;5002438;28;20475;-70
2022/03/26 12:04:18;;;;;;;11.48;8.88;;;22.10;48.10;;;;;;4997338;28;20121;-70
2022/03/26 12:06:55;;;;;;;11.27;8.60;;;22.30;47.80;;;;;;5034334;28;20048;-70
2022/03/26 12:09:37;;;;;;;9.90;8.90;;;22.30;47.50;;;;;;5007302;28;20096;-70
2022/03/26 12:12:08;;;;;;;11.82;10.10;;;22.50;48.50;;;;;;4995513;28;20058;-70
2022/03/26 12:14:35;;;;;;;9.18;8.13;;;22.60;47.90;;;;;;5026403;28;20058;-70
2022/03/26 12:17:03;;;;;;;10.93;8.82;;;22.80;47.80;;;;;;4996966;28;20038;-70
2022/03/26 12:19:50;;;;;;;8.40;7.45;;;23.20;46.80;;;;;;4991299;28;20490;-70
2022/03/26 12:22:32;;;;;;;10.07;7.03;;;23.60;46.60;;;;;;4999903;28;20091;-70
2022/03/26 12:25:00;;;;;;;10.30;7.13;;;23.70;45.10;;;;;;4995602;28;20045;-70
2022/03/26 12:27:26;;;;;;;8.35;6.35;;;23.50;45.60;;;;;;4998543;28;20069;-70
2022/03/26 12:29:57;;;;;;;8.27;6.63;;;23.40;45.70;;;;;;5004388;28;20390;-70
2022/03/26 12:32:33;;;;;;;11.18;7.60;;;23.30;45.50;;;;;;5030935;28;20150;-70
2022/03/26 12:35:05;;;;;;;10.32;6.93;;;23.40;45.40;;;;;;4999077;28;20117;-70
2022/03/26 12:37:35;;;;;;;7.93;6.25;;;22.90;45.80;;;;;;5034051;28;20451;-70
2022/03/26 12:40:04;;;;;;;6.45;5.63;;;22.90;46.50;;;;;;4997508;28;20387;-70
2022/03/26 12:42:29;;;;;;;7.30;5.30;;;23.00;46.70;;;;;;5003434;28;20057;-70
2022/03/26 12:44:55;;;;;;;7.80;5.70;;;23.30;45.80;;;;;;4997753;28;20418;-70
2022/03/26 12:47:24;;;;;;;11.88;6.20;;;22.90;45.90;;;;;;5001685;28;20125;-70